Newberg, Oregon
Current Conditions -  °F | °C
As of 11:53 PM on Tuesday 21 Oct 2014 (Local Time) from KUAO Reporting Station
Light Rain Light Rain  
Wind Chill: 57°   Ceiling: 8000
Heat Index: 57°   Visibility: 10mi
Dew Point: 48°   Wind: 8mph
Humidity: 72%   Direction: 170°S
Pressure: 29.85"   Gusts: NA
Location:  45.3°N, 122.97°W
Report Text: KUAO 220653Z AUTO 17007KT 10SM -RA SCT060 OVC080 14/09 A2985 RMK AO2 SLP107 P0000 T01390089
Loading
Personal Weather Stations






























Interactive Weather Map
Tropical Storm Tracking
New forecast layout! Learn more

10-Day Weather Forecast

Advertisements
Track Severe Weather on mobile